PWSweather.com
Personal Weather Stations
Station Observations
728536
Kristiansand, FlekkeroyNO 4625

KristiansandFlekkeroyNO 4625

Lat: 58.0860587, Lon: 8.0151742

Elevation: 36

Station Type: Davis Vantage Pro2

http://www.paulen.no

Latest ConditionsUpdated 5:50:02 PM GMT+01:01 Sunday, Sep 23, 2018
Currently Today's Max Today's Min Today's Average
Temperature 51.7°F10.9°C 56.0°F13.3°C 46.1°F7.8°C 50.9°F10.5°C
Dew Point 37.4°F3.0°C 43.5°F6.4°C 35.9°F2.2°C 41.0°F5.0°C
Winds 13.8 mph NW22.2 kmh NW 18.4 mph -29.6 kmh - - 6.7 mph 10.8 kmh
Wind Gusts 17.3 mph27.8 kmh 20.7 mph33.3 kmh - -
Humidity 58% 88% 48% 70%
Pressure 29.74 in1007.1 mb 29.74 in1007.1 mb 29.65 in1004.1 mb -
Hour Temp Dew Point Humidity Winds Wind Gusts Pressure Precip Precip Rate Daily Precip Total
05:50 PM 51.7°F10.9°C 37.4°F3.0°C 58% 13.8 mph NW22.2 kmh NW 17.3 mph27.8 kmh 29.74 in1007.1 mb - 0.00 in0.0 mm 0.00 in0.0 mm
05:40 PM 52.4°F11.3°C 37.6°F3.1°C 57% 8.1 mph NW13.0 kmh NW 11.5 mph18.5 kmh 29.74 in1007.1 mb - 0.00 in0.0 mm 0.00 in0.0 mm
05:30 PM 52.9°F11.6°C 37.6°F3.1°C 56% 10.4 mph NW16.7 kmh NW 12.7 mph20.4 kmh 29.74 in1007.1 mb - 0.00 in0.0 mm 0.00 in0.0 mm
05:20 PM 53.4°F11.9°C 37.2°F2.9°C 54% 8.1 mph NW13.0 kmh NW 13.8 mph22.2 kmh 29.73 in1006.8 mb - 0.00 in0.0 mm 0.00 in0.0 mm
05:10 PM 53.7°F12.1°C 36.5°F2.5°C 52% 10.4 mph NW16.7 kmh NW 13.8 mph22.2 kmh 29.73 in1006.8 mb - 0.00 in0.0 mm 0.00 in0.0 mm
05:00 PM 53.9°F12.2°C 36.7°F2.6°C 52% 10.4 mph NW16.7 kmh NW 13.8 mph22.2 kmh 29.73 in1006.8 mb - 0.00 in0.0 mm 0.00 in0.0 mm
04:50 PM 54.1°F12.3°C 36.9°F2.7°C 52% 9.2 mph NW14.8 kmh NW 12.7 mph20.4 kmh 29.73 in1006.8 mb - 0.00 in0.0 mm 0.00 in0.0 mm
04:40 PM 54.4°F12.4°C 36.6°F2.6°C 51% 8.1 mph NW13.0 kmh NW 15.0 mph24.1 kmh 29.73 in1006.8 mb - 0.00 in0.0 mm 0.00 in0.0 mm
04:30 PM 54.7°F12.6°C 36.9°F2.7°C 51% 10.4 mph NW16.7 kmh NW 13.8 mph22.2 kmh 29.73 in1006.8 mb - 0.00 in0.0 mm 0.00 in0.0 mm
04:20 PM 55.0°F12.8°C 37.7°F3.2°C 52% 10.4 mph NW16.7 kmh NW 15.0 mph24.1 kmh 29.73 in1006.8 mb - 0.00 in0.0 mm 0.00 in0.0 mm
04:10 PM 55.0°F12.8°C 38.2°F3.4°C 53% 9.2 mph NW14.8 kmh NW 11.5 mph18.5 kmh 29.72 in1006.4 mb - 0.00 in0.0 mm 0.00 in0.0 mm
04:00 PM 55.2°F12.9°C 37.9°F3.3°C 52% 10.4 mph NW16.7 kmh NW 16.1 mph25.9 kmh 29.72 in1006.4 mb - 0.00 in0.0 mm 0.00 in0.0 mm
03:50 PM 55.4°F13.0°C 37.6°F3.1°C 51% 10.4 mph NW16.7 kmh NW 13.8 mph22.2 kmh 29.72 in1006.4 mb - 0.00 in0.0 mm 0.00 in0.0 mm
03:40 PM 55.5°F13.1°C 39.1°F3.9°C 54% 9.2 mph NW14.8 kmh NW 11.5 mph18.5 kmh 29.72 in1006.4 mb - 0.00 in0.0 mm 0.00 in0.0 mm
03:30 PM 55.3°F12.9°C 37.5°F3.1°C 51% 15.0 mph NW24.1 kmh NW 19.6 mph31.5 kmh 29.72 in1006.4 mb - 0.00 in0.0 mm 0.00 in0.0 mm
03:20 PM 55.5°F13.1°C 37.1°F2.8°C 50% 11.5 mph NW18.5 kmh NW 18.4 mph29.6 kmh 29.71 in1006.1 mb - 0.00 in0.0 mm 0.00 in0.0 mm
03:10 PM 55.3°F12.9°C 37.0°F2.8°C 50% 11.5 mph NW18.5 kmh NW 17.3 mph27.8 kmh 29.71 in1006.1 mb - 0.00 in0.0 mm 0.00 in0.0 mm
03:00 PM 55.2°F12.9°C 37.4°F3.0°C 51% 11.5 mph NW18.5 kmh NW 16.1 mph25.9 kmh 29.71 in1006.1 mb - 0.00 in0.0 mm 0.00 in0.0 mm
02:50 PM 55.3°F12.9°C 35.9°F2.2°C 48% 12.7 mph NW20.4 kmh NW 17.3 mph27.8 kmh 29.71 in1006.1 mb - 0.00 in0.0 mm 0.00 in0.0 mm
02:40 PM 55.3°F12.9°C 37.0°F2.8°C 50% 13.8 mph NW22.2 kmh NW 16.1 mph25.9 kmh 29.71 in1006.1 mb - 0.00 in0.0 mm 0.00 in0.0 mm
02:30 PM 55.3°F12.9°C 37.5°F3.1°C 51% 11.5 mph NW18.5 kmh NW 15.0 mph24.1 kmh 29.71 in1006.1 mb - 0.00 in0.0 mm 0.00 in0.0 mm
02:20 PM 55.1°F12.8°C 37.3°F2.9°C 51% 11.5 mph NW18.5 kmh NW 13.8 mph22.2 kmh 29.71 in1006.1 mb - 0.00 in0.0 mm 0.00 in0.0 mm
02:10 PM 55.5°F13.1°C 38.1°F3.4°C 52% 18.4 mph NNW29.6 kmh NNW 20.7 mph33.3 kmh 29.71 in1006.1 mb - 0.00 in0.0 mm 0.00 in0.0 mm
02:00 PM 56.0°F13.3°C 39.6°F4.2°C 54% 9.2 mph NW14.8 kmh NW 13.8 mph22.2 kmh 29.71 in1006.1 mb - 0.00 in0.0 mm 0.00 in0.0 mm
01:50 PM 55.8°F13.2°C 38.4°F3.6°C 52% 9.2 mph NW14.8 kmh NW 13.8 mph22.2 kmh 29.71 in1006.1 mb - 0.00 in0.0 mm 0.00 in0.0 mm
01:40 PM 55.5°F13.1°C 38.2°F3.4°C 52% 6.9 mph WNW11.1 kmh WNW 11.5 mph18.5 kmh 29.71 in1006.1 mb - 0.00 in0.0 mm 0.00 in0.0 mm
01:30 PM 55.5°F13.1°C 37.7°F3.2°C 51% 10.4 mph NW16.7 kmh NW 15.0 mph24.1 kmh 29.71 in1006.1 mb - 0.00 in0.0 mm 0.00 in0.0 mm
01:20 PM 55.4°F13.0°C 38.1°F3.4°C 52% 10.4 mph NW16.7 kmh NW 13.8 mph22.2 kmh 29.71 in1006.1 mb - 0.00 in0.0 mm 0.00 in0.0 mm
01:10 PM 55.2°F12.9°C 39.3°F4.1°C 55% 12.7 mph NW20.4 kmh NW 15.0 mph24.1 kmh 29.72 in1006.4 mb - 0.00 in0.0 mm 0.00 in0.0 mm
01:00 PM 55.2°F12.9°C 40.2°F4.6°C 57% 8.1 mph NW13.0 kmh NW 17.3 mph27.8 kmh 29.72 in1006.4 mb - 0.00 in0.0 mm 0.00 in0.0 mm
12:50 PM 55.0°F12.8°C 39.1°F3.9°C 55% 8.1 mph NW13.0 kmh NW 11.5 mph18.5 kmh 29.72 in1006.4 mb - 0.00 in0.0 mm 0.00 in0.0 mm
12:40 PM 54.8°F12.7°C 38.5°F3.6°C 54% 11.5 mph NW18.5 kmh NW 13.8 mph22.2 kmh 29.72 in1006.4 mb - 0.00 in0.0 mm 0.00 in0.0 mm
12:30 PM 54.9°F12.7°C 38.6°F3.7°C 54% 10.4 mph NW16.7 kmh NW 12.7 mph20.4 kmh 29.72 in1006.4 mb - 0.00 in0.0 mm 0.00 in0.0 mm
12:20 PM 55.5°F13.1°C 39.1°F3.9°C 54% 8.1 mph NW13.0 kmh NW 12.7 mph20.4 kmh 29.72 in1006.4 mb - 0.00 in0.0 mm 0.00 in0.0 mm
12:10 PM 55.2°F12.9°C 40.7°F4.8°C 58% 6.9 mph NW11.1 kmh NW 11.5 mph18.5 kmh 29.72 in1006.4 mb - 0.00 in0.0 mm 0.00 in0.0 mm
12:00 PM 54.9°F12.7°C 40.8°F4.9°C 59% 8.1 mph NW13.0 kmh NW 11.5 mph18.5 kmh 29.72 in1006.4 mb - 0.00 in0.0 mm 0.00 in0.0 mm
11:50 AM 54.4°F12.4°C 39.5°F4.2°C 57% 8.1 mph NW13.0 kmh NW 9.2 mph14.8 kmh 29.72 in1006.4 mb - 0.00 in0.0 mm 0.00 in0.0 mm
11:40 AM 54.3°F12.4°C 40.3°F4.6°C 59% 8.1 mph NW13.0 kmh NW 9.2 mph14.8 kmh 29.72 in1006.4 mb - 0.00 in0.0 mm 0.00 in0.0 mm
11:30 AM 54.2°F12.3°C 40.6°F4.8°C 60% 10.4 mph NW16.7 kmh NW 15.0 mph24.1 kmh 29.73 in1006.8 mb - 0.00 in0.0 mm 0.00 in0.0 mm
11:20 AM 54.0°F12.2°C 40.0°F4.4°C 59% 8.1 mph NW13.0 kmh NW 10.4 mph16.7 kmh 29.73 in1006.8 mb - 0.00 in0.0 mm 0.00 in0.0 mm
11:10 AM 54.1°F12.3°C 40.9°F4.9°C 61% 5.8 mph NW9.3 kmh NW 11.5 mph18.5 kmh 29.73 in1006.8 mb - 0.00 in0.0 mm 0.00 in0.0 mm
11:00 AM 53.7°F12.1°C 41.9°F5.5°C 64% 8.1 mph NW13.0 kmh NW 12.7 mph20.4 kmh 29.72 in1006.4 mb - 0.00 in0.0 mm 0.00 in0.0 mm
10:50 AM 53.3°F11.8°C 41.5°F5.3°C 64% 6.9 mph NW11.1 kmh NW 11.5 mph18.5 kmh 29.72 in1006.4 mb - 0.00 in0.0 mm 0.00 in0.0 mm
10:40 AM 53.1°F11.7°C 41.6°F5.3°C 65% 6.9 mph NW11.1 kmh NW 12.7 mph20.4 kmh 29.72 in1006.4 mb - 0.00 in0.0 mm 0.00 in0.0 mm
10:30 AM 52.8°F11.6°C 42.1°F5.6°C 67% 4.6 mph NW7.4 kmh NW 11.5 mph18.5 kmh 29.72 in1006.4 mb - 0.00 in0.0 mm 0.00 in0.0 mm
10:20 AM 52.5°F11.4°C 41.5°F5.3°C 66% 9.2 mph WNW14.8 kmh WNW 11.5 mph18.5 kmh 29.72 in1006.4 mb - 0.00 in0.0 mm 0.00 in0.0 mm
10:10 AM 52.2°F11.2°C 41.9°F5.5°C 68% 5.8 mph NW9.3 kmh NW 9.2 mph14.8 kmh 29.72 in1006.4 mb - 0.00 in0.0 mm 0.00 in0.0 mm
10:00 AM 51.8°F11.0°C 41.9°F5.5°C 69% 8.1 mph NW13.0 kmh NW 10.4 mph16.7 kmh 29.72 in1006.4 mb - 0.00 in0.0 mm 0.00 in0.0 mm
09:50 AM 51.9°F11.1°C 42.4°F5.8°C 70% 5.8 mph NW9.3 kmh NW 9.2 mph14.8 kmh 29.72 in1006.4 mb - 0.00 in0.0 mm 0.00 in0.0 mm
09:40 AM 51.6°F10.9°C 42.1°F5.6°C 70% 5.8 mph NW9.3 kmh NW 10.4 mph16.7 kmh 29.72 in1006.4 mb - 0.00 in0.0 mm 0.00 in0.0 mm
09:30 AM 51.5°F10.8°C 42.4°F5.8°C 71% 6.9 mph NW11.1 kmh NW 10.4 mph16.7 kmh 29.72 in1006.4 mb - 0.00 in0.0 mm 0.00 in0.0 mm
09:20 AM 51.3°F10.7°C 43.3°F6.3°C 74% 3.5 mph NW5.6 kmh NW 6.9 mph11.1 kmh 29.72 in1006.4 mb - 0.00 in0.0 mm 0.00 in0.0 mm
09:10 AM 50.6°F10.3°C 42.6°F5.9°C 74% 3.5 mph NW5.6 kmh NW 8.1 mph13.0 kmh 29.72 in1006.4 mb - 0.00 in0.0 mm 0.00 in0.0 mm
09:00 AM 50.3°F10.2°C 42.7°F5.9°C 75% 4.6 mph NW7.4 kmh NW 5.8 mph9.3 kmh 29.71 in1006.1 mb - 0.00 in0.0 mm 0.00 in0.0 mm
08:50 AM 49.8°F9.9°C 42.5°F5.8°C 76% 5.8 mph NW9.3 kmh NW 8.1 mph13.0 kmh 29.71 in1006.1 mb - 0.00 in0.0 mm 0.00 in0.0 mm
08:40 AM 49.5°F9.7°C 42.9°F6.1°C 78% 8.1 mph WNW13.0 kmh WNW 12.7 mph20.4 kmh 29.71 in1006.1 mb - 0.00 in0.0 mm 0.00 in0.0 mm
08:30 AM 49.2°F9.6°C 43.0°F6.1°C 79% 5.8 mph NW9.3 kmh NW 8.1 mph13.0 kmh 29.71 in1006.1 mb - 0.00 in0.0 mm 0.00 in0.0 mm
08:20 AM 48.9°F9.4°C 43.3°F6.3°C 81% 3.5 mph WNW5.6 kmh WNW 9.2 mph14.8 kmh 29.71 in1006.1 mb - 0.00 in0.0 mm 0.00 in0.0 mm
08:10 AM 48.8°F9.3°C 43.3°F6.3°C 81% 4.6 mph W7.4 kmh W 6.9 mph11.1 kmh 29.70 in1005.8 mb - 0.00 in0.0 mm 0.00 in0.0 mm
08:00 AM 48.5°F9.2°C 43.2°F6.2°C 82% 1.2 mph WSW1.9 kmh WSW 3.5 mph5.6 kmh 29.70 in1005.8 mb - 0.00 in0.0 mm 0.00 in0.0 mm
07:50 AM 48.2°F9.0°C 43.3°F6.3°C 83% 2.3 mph W3.7 kmh W 8.1 mph13.0 kmh 29.71 in1006.1 mb - 0.00 in0.0 mm 0.00 in0.0 mm
07:40 AM 47.5°F8.6°C 43.2°F6.2°C 85% 1.2 mph WSW1.9 kmh WSW 3.5 mph5.6 kmh 29.70 in1005.8 mb - 0.00 in0.0 mm 0.00 in0.0 mm
07:30 AM 47.2°F8.4°C 42.9°F6.1°C 85% 3.5 mph NW5.6 kmh NW 4.6 mph7.4 kmh 29.70 in1005.8 mb - 0.00 in0.0 mm 0.00 in0.0 mm
07:20 AM 47.0°F8.3°C 42.7°F5.9°C 85% 2.3 mph WSW3.7 kmh WSW 3.5 mph5.6 kmh 29.70 in1005.8 mb - 0.00 in0.0 mm 0.00 in0.0 mm
07:10 AM 47.0°F8.3°C 43.0°F6.1°C 86% 3.5 mph W5.6 kmh W 4.6 mph7.4 kmh 29.70 in1005.8 mb - 0.00 in0.0 mm 0.00 in0.0 mm
07:00 AM 46.9°F8.3°C 43.2°F6.2°C 87% 3.5 mph WNW5.6 kmh WNW 6.9 mph11.1 kmh 29.69 in1005.4 mb - 0.00 in0.0 mm 0.00 in0.0 mm
06:50 AM 46.8°F8.2°C 43.1°F6.2°C 87% 2.3 mph W3.7 kmh W 5.8 mph9.3 kmh 29.69 in1005.4 mb - 0.00 in0.0 mm 0.00 in0.0 mm
06:40 AM 46.5°F8.1°C 43.1°F6.2°C 88% 3.5 mph W5.6 kmh W 6.9 mph11.1 kmh 29.69 in1005.4 mb - 0.00 in0.0 mm 0.00 in0.0 mm
06:30 AM 46.3°F7.9°C 42.9°F6.1°C 88% 2.3 mph W3.7 kmh W 9.2 mph14.8 kmh 29.69 in1005.4 mb - 0.00 in0.0 mm 0.00 in0.0 mm
06:20 AM 46.1°F7.8°C 42.7°F5.9°C 88% 1.2 mph WSW1.9 kmh WSW 3.5 mph5.6 kmh 29.68 in1005.1 mb - 0.00 in0.0 mm 0.00 in0.0 mm
06:10 AM 46.1°F7.8°C 42.4°F5.8°C 87% 1.2 mph W1.9 kmh W 6.9 mph11.1 kmh 29.68 in1005.1 mb - 0.00 in0.0 mm 0.00 in0.0 mm
06:00 AM 46.2°F7.9°C 42.6°F5.9°C 87% 3.5 mph W5.6 kmh W 6.9 mph11.1 kmh 29.68 in1005.1 mb - 0.00 in0.0 mm 0.00 in0.0 mm
05:50 AM 46.4°F8.0°C 42.4°F5.8°C 86% 4.6 mph W7.4 kmh W 9.2 mph14.8 kmh 29.68 in1005.1 mb - 0.00 in0.0 mm 0.00 in0.0 mm
05:40 AM 46.5°F8.1°C 42.5°F5.8°C 86% 1.2 mph W1.9 kmh W 3.5 mph5.6 kmh 29.68 in1005.1 mb - 0.00 in0.0 mm 0.00 in0.0 mm
05:30 AM 46.5°F8.1°C 42.5°F5.8°C 86% 5.8 mph W9.3 kmh W 8.1 mph13.0 kmh 29.68 in1005.1 mb - 0.00 in0.0 mm 0.00 in0.0 mm
05:20 AM 46.7°F8.2°C 42.7°F5.9°C 86% 3.5 mph WSW5.6 kmh WSW 8.1 mph13.0 kmh 29.68 in1005.1 mb - 0.00 in0.0 mm 0.00 in0.0 mm
05:10 AM 46.7°F8.2°C 42.4°F5.8°C 85% 3.5 mph WNW5.6 kmh WNW 6.9 mph11.1 kmh 29.67 in1004.7 mb - 0.00 in0.0 mm 0.00 in0.0 mm
05:00 AM 46.9°F8.3°C 42.6°F5.9°C 85% 3.5 mph W5.6 kmh W 8.1 mph13.0 kmh 29.67 in1004.7 mb - 0.00 in0.0 mm 0.00 in0.0 mm
04:50 AM 46.9°F8.3°C 42.6°F5.9°C 85% 4.6 mph WSW7.4 kmh WSW 11.5 mph18.5 kmh 29.67 in1004.7 mb - 0.00 in0.0 mm 0.00 in0.0 mm
04:40 AM 47.0°F8.3°C 42.7°F5.9°C 85% 5.8 mph WSW9.3 kmh WSW 11.5 mph18.5 kmh 29.67 in1004.7 mb - 0.00 in0.0 mm 0.00 in0.0 mm
04:30 AM 47.3°F8.5°C 42.7°F5.9°C 84% 3.5 mph WNW5.6 kmh WNW 5.8 mph9.3 kmh 29.67 in1004.7 mb - 0.00 in0.0 mm 0.00 in0.0 mm
04:20 AM 47.5°F8.6°C 42.9°F6.1°C 84% 8.1 mph WNW13.0 kmh WNW 12.7 mph20.4 kmh 29.67 in1004.7 mb - 0.00 in0.0 mm 0.00 in0.0 mm
04:10 AM 47.6°F8.7°C 43.0°F6.1°C 84% 6.9 mph WNW11.1 kmh WNW 11.5 mph18.5 kmh 29.66 in1004.4 mb - 0.00 in0.0 mm 0.00 in0.0 mm
04:00 AM 47.8°F8.8°C 43.2°F6.2°C 84% 3.5 mph WNW5.6 kmh WNW 8.1 mph13.0 kmh 29.66 in1004.4 mb - 0.00 in0.0 mm 0.00 in0.0 mm
03:50 AM 47.9°F8.8°C 43.3°F6.3°C 84% 5.8 mph W9.3 kmh W 11.5 mph18.5 kmh 29.66 in1004.4 mb - 0.00 in0.0 mm 0.00 in0.0 mm
03:40 AM 48.1°F8.9°C 43.5°F6.4°C 84% 3.5 mph W5.6 kmh W 11.5 mph18.5 kmh 29.67 in1004.7 mb - 0.00 in0.0 mm 0.00 in0.0 mm
03:30 AM 48.3°F9.1°C 43.4°F6.3°C 83% 4.6 mph W7.4 kmh W 11.5 mph18.5 kmh 29.66 in1004.4 mb - 0.00 in0.0 mm 0.00 in0.0 mm
03:20 AM 48.4°F9.1°C 43.5°F6.4°C 83% 4.6 mph W7.4 kmh W 4.6 mph7.4 kmh 29.66 in1004.4 mb - 0.00 in0.0 mm 0.00 in0.0 mm
03:10 AM 48.5°F9.2°C 43.3°F6.3°C 82% 6.9 mph W11.1 kmh W 9.2 mph14.8 kmh 29.66 in1004.4 mb - 0.00 in0.0 mm 0.00 in0.0 mm
03:00 AM 48.5°F9.2°C 43.3°F6.3°C 82% 5.8 mph WNW9.3 kmh WNW 13.8 mph22.2 kmh 29.66 in1004.4 mb - 0.00 in0.0 mm 0.00 in0.0 mm
02:50 AM 48.5°F9.2°C 43.3°F6.3°C 82% 6.9 mph W11.1 kmh W 11.5 mph18.5 kmh 29.67 in1004.7 mb - 0.00 in0.0 mm 0.00 in0.0 mm
02:40 AM 48.5°F9.2°C 43.2°F6.2°C 82% 4.6 mph W7.4 kmh W 11.5 mph18.5 kmh 29.67 in1004.7 mb - 0.00 in0.0 mm 0.00 in0.0 mm
02:30 AM 48.6°F9.2°C 43.0°F6.1°C 81% 3.5 mph W5.6 kmh W 9.2 mph14.8 kmh 29.67 in1004.7 mb - 0.00 in0.0 mm 0.00 in0.0 mm
02:20 AM 48.5°F9.2°C 43.3°F6.3°C 82% 8.1 mph W13.0 kmh W 13.8 mph22.2 kmh 29.67 in1004.7 mb - 0.00 in0.0 mm 0.00 in0.0 mm
02:10 AM 48.6°F9.2°C 43.0°F6.1°C 81% 3.5 mph WNW5.6 kmh WNW 5.8 mph9.3 kmh 29.67 in1004.7 mb - 0.00 in0.0 mm 0.00 in0.0 mm
02:00 AM 48.6°F9.2°C 43.0°F6.1°C 81% 4.6 mph W7.4 kmh W 8.1 mph13.0 kmh 29.67 in1004.7 mb - 0.00 in0.0 mm 0.00 in0.0 mm
01:50 AM 48.5°F9.2°C 42.9°F6.1°C 81% 4.6 mph W7.4 kmh W 11.5 mph18.5 kmh 29.66 in1004.4 mb - 0.00 in0.0 mm 0.00 in0.0 mm
01:40 AM 48.5°F9.2°C 42.9°F6.1°C 81% 4.6 mph WSW7.4 kmh WSW 13.8 mph22.2 kmh 29.66 in1004.4 mb - 0.00 in0.0 mm 0.00 in0.0 mm
01:30 AM 48.3°F9.1°C 42.8°F6.0°C 81% 3.5 mph W5.6 kmh W 11.5 mph18.5 kmh 29.66 in1004.4 mb - 0.00 in0.0 mm 0.00 in0.0 mm
01:20 AM 48.3°F9.1°C 42.7°F5.9°C 81% 5.8 mph WSW9.3 kmh WSW 12.7 mph20.4 kmh 29.66 in1004.4 mb - 0.00 in0.0 mm 0.00 in0.0 mm
01:10 AM 48.2°F9.0°C 42.6°F5.9°C 81% 3.5 mph W5.6 kmh W 5.8 mph9.3 kmh 29.66 in1004.4 mb - 0.00 in0.0 mm 0.00 in0.0 mm
01:00 AM 48.2°F9.0°C 42.6°F5.9°C 81% 3.5 mph W5.6 kmh W 4.6 mph7.4 kmh 29.66 in1004.4 mb - 0.00 in0.0 mm 0.00 in0.0 mm
12:50 AM 48.2°F9.0°C 42.6°F5.9°C 81% 4.6 mph WNW7.4 kmh WNW 8.1 mph13.0 kmh 29.66 in1004.4 mb - 0.00 in0.0 mm 0.00 in0.0 mm
12:40 AM 48.2°F9.0°C 42.7°F5.9°C 81% 3.5 mph W5.6 kmh W 16.1 mph25.9 kmh 29.66 in1004.4 mb - 0.00 in0.0 mm 0.00 in0.0 mm
12:30 AM 48.4°F9.1°C 42.5°F5.8°C 80% 5.8 mph W9.3 kmh W 11.5 mph18.5 kmh 29.65 in1004.1 mb - 0.00 in0.0 mm 0.00 in0.0 mm
12:20 AM 48.2°F9.0°C 42.6°F5.9°C 81% 5.8 mph SW9.3 kmh SW 11.5 mph18.5 kmh 29.65 in1004.1 mb - 0.00 in0.0 mm 0.00 in0.0 mm
12:10 AM 48.2°F9.0°C 42.6°F5.9°C 81% 4.6 mph WSW7.4 kmh WSW 11.5 mph18.5 kmh 29.66 in1004.4 mb - 0.00 in0.0 mm 0.00 in0.0 mm
12:00 AM 48.3°F9.1°C 42.7°F5.9°C 81% 4.6 mph WSW7.4 kmh WSW 6.9 mph11.1 kmh 29.66 in1004.4 mb - 0.00 in0.0 mm 0.00 in0.0 mm